Terminal Aerodrome Forecast
Issued by NWS Key West, FL

Home | Current Version | Previous Version | Text Only | Print | Product List | Glossary On
Versions: 1 2 3 4 5 6 7 8 9 10 11 12 13 14 15 16 17 18 19
000
FTUS42 KKEY 160904 AAA
TAFEYW
TAF AMD
KEYW 160904Z 1609/1706 03006KT P6SM FEW250
     FM161800 07011KT P6SM FEW028 SCT250
     FM162100 08011KT P6SM SCT028 BKN250=

USA.gov is the U.S. government's official web portal to all federal, state and local government web resources and services.